Terminal Aerodrome Forecast
Issued by NWS Bismarck, ND

Home | Current Version | Previous Version | Text Only | Print | Product List | Glossary On
Versions: 1 2 3 4 5 6 7 8 9 10 11 12 13 14 15 16 17 18 19 20 21
000
FTUS43 KBIS 290800 AAA
TAFISN
TAF AMD
KISN 290846Z 2909/3006 34011KT P6SM VCSH SCT015 OVC025
      TEMPO 2909/2912 4SM -SN BKN018 OVC025
     FM291200 33015KT P6SM SCT025 BKN060
     FM291800 32016G23KT P6SM VCSH BKN070 BKN110=

USA.gov is the U.S. government's official web portal to all federal, state and local government web resources and services.